Time;durP1;ratioP1;P1;durP2;ratioP2;P2;SDS_P1;SDS_P2;PMS_P1;PMS_P2;Temp;Humidity;BMP_temperature;BMP_pressure;BME280_temperature;BME280_humidity;BME280_pressure;Samples;Min_cycle;Max_cycle;Signal;HPM_P1;HPM_P2
2021/05/24 00:00:11;;;;;;;1.10;0.10;;;12.20;99.90;;;;;;4967928;29;20023;-83
2021/05/24 00:02:37;;;;;;;1.85;0.10;;;12.20;99.90;;;;;;4967497;29;20125;-81
2021/05/24 00:08:52;;;;;;;1.10;0.10;;;12.20;99.90;;;;;;4928284;29;20072;-82
2021/05/24 00:11:18;;;;;;;0.88;0.10;;;12.20;99.90;;;;;;4912405;29;20036;-83
2021/05/24 00:13:51;;;;;;;1.27;0.10;;;12.20;99.90;;;;;;4912244;29;20059;-82
2021/05/24 00:16:17;;;;;;;2.83;0.20;;;12.20;99.90;;;;;;4896580;29;20509;-82
2021/05/24 00:18:46;;;;;;;0.50;0.10;;;12.20;99.90;;;;;;4912147;29;20036;-82
2021/05/24 00:21:11;;;;;;;1.00;0.10;;;12.20;99.90;;;;;;4912304;29;20047;-83
2021/05/24 00:23:37;;;;;;;0.55;0.10;;;12.20;99.90;;;;;;4912286;29;20032;-83
2021/05/24 00:26:02;;;;;;;0.63;0.10;;;12.20;99.90;;;;;;4943421;29;20455;-83
2021/05/24 00:28:28;;;;;;;1.20;0.20;;;12.20;99.90;;;;;;4915385;29;20031;-81
2021/05/24 00:30:54;;;;;;;1.55;0.10;;;12.20;99.90;;;;;;4946968;29;20051;-81
2021/05/24 00:33:19;;;;;;;0.88;0.17;;;12.30;99.90;;;;;;4929972;29;20043;-81
2021/05/24 00:35:45;;;;;;;1.95;0.10;;;12.30;99.90;;;;;;4927835;29;20059;-82
2021/05/24 00:38:11;;;;;;;1.20;0.10;;;12.30;99.90;;;;;;4912025;29;20044;-82
2021/05/24 00:40:38;;;;;;;1.77;0.20;;;12.20;99.90;;;;;;4927925;29;20076;-83
2021/05/24 00:43:07;;;;;;;1.45;0.10;;;12.20;99.90;;;;;;4911786;29;20036;-82
2021/05/24 00:45:33;;;;;;;0.90;0.10;;;12.20;99.90;;;;;;4958504;29;20408;-82
2021/05/24 00:47:59;;;;;;;2.10;0.13;;;12.20;99.90;;;;;;4967936;28;20034;-82
2021/05/24 00:50:24;;;;;;;1.85;0.17;;;12.20;99.90;;;;;;4967056;29;20126;-82
2021/05/24 00:52:50;;;;;;;2.67;0.10;;;12.20;99.90;;;;;;4968076;29;20026;-83
2021/05/24 00:55:16;;;;;;;1.05;0.20;;;12.20;99.90;;;;;;4966829;29;20035;-82
2021/05/24 00:57:43;;;;;;;0.65;0.13;;;12.10;99.90;;;;;;4966779;29;20037;-82
2021/05/24 01:00:14;;;;;;;0.90;0.10;;;12.10;99.90;;;;;;4966768;29;20031;-82
2021/05/24 01:02:40;;;;;;;1.13;0.10;;;12.10;99.90;;;;;;4967936;29;20039;-82
2021/05/24 01:05:26;;;;;;;2.28;0.15;;;12.10;99.90;;;;;;4950355;29;20054;-82
2021/05/24 01:07:51;;;;;;;0.28;0.05;;;12.10;99.90;;;;;;4949611;29;20035;-83
2021/05/24 01:10:18;;;;;;;0.57;0.10;;;12.10;99.90;;;;;;4949617;29;20046;-82
2021/05/24 01:12:44;;;;;;;1.13;0.10;;;12.10;99.90;;;;;;4949262;29;20043;-82
2021/05/24 01:15:10;;;;;;;0.85;0.10;;;12.10;99.90;;;;;;4949375;29;20511;-82
2021/05/24 01:17:36;;;;;;;2.00;0.20;;;12.10;99.90;;;;;;4949098;29;20035;-82
2021/05/24 01:20:03;;;;;;;1.27;0.10;;;12.10;99.90;;;;;;4965303;29;20058;-83
2021/05/24 01:22:32;;;;;;;1.67;0.10;;;12.10;99.90;;;;;;4949169;29;20038;-81
2021/05/24 01:24:57;;;;;;;1.17;0.03;;;12.00;99.90;;;;;;4952439;28;20047;-82
2021/05/24 01:27:23;;;;;;;1.33;0.10;;;12.00;99.90;;;;;;4984755;28;20031;-84
2021/05/24 01:29:49;;;;;;;1.30;0.20;;;12.00;99.90;;;;;;4984766;28;20067;-82
2021/05/24 01:32:14;;;;;;;0.20;0.10;;;12.00;99.90;;;;;;4976349;28;20071;-81
2021/05/24 01:34:41;;;;;;;0.80;0.10;;;12.00;99.90;;;;;;4965221;29;20031;-84
2021/05/24 01:37:07;;;;;;;0.77;0.10;;;12.00;99.90;;;;;;4965204;29;20023;-82
2021/05/24 01:39:33;;;;;;;0.40;0.10;;;12.00;99.90;;;;;;4965189;29;20050;-82
2021/05/24 01:41:59;;;;;;;0.88;0.10;;;12.00;99.90;;;;;;4965285;29;20043;-81
2021/05/24 01:44:36;;;;;;;1.75;0.20;;;12.00;99.90;;;;;;4962315;29;20055;-82
2021/05/24 01:47:04;;;;;;;2.38;0.20;;;12.00;99.90;;;;;;4963306;29;20115;-82
2021/05/24 01:49:34;;;;;;;0.73;0.10;;;12.00;99.90;;;;;;4948124;29;20027;-82
2021/05/24 01:52:04;;;;;;;0.40;0.08;;;12.00;99.90;;;;;;4948270;29;20068;-82
2021/05/24 01:54:30;;;;;;;1.35;0.20;;;12.00;99.90;;;;;;4948246;29;20031;-81
2021/05/24 01:56:55;;;;;;;1.33;0.03;;;12.00;99.90;;;;;;4948303;29;20051;-82
2021/05/24 01:59:21;;;;;;;0.68;0.08;;;11.90;99.90;;;;;;4948251;29;20031;-82
2021/05/24 02:01:47;;;;;;;0.82;0.13;;;11.90;99.90;;;;;;4946807;29;20047;-82
2021/05/24 02:04:15;;;;;;;0.95;0.10;;;11.90;99.90;;;;;;4948144;29;20036;-82
2021/05/24 02:06:41;;;;;;;0.68;0.10;;;11.90;99.90;;;;;;4947752;29;20032;-81
2021/05/24 02:09:07;;;;;;;0.75;0.20;;;11.90;99.90;;;;;;4946691;29;20039;-81
2021/05/24 02:11:33;;;;;;;0.25;0.05;;;11.90;99.90;;;;;;4947763;29;20083;-81
2021/05/24 02:13:58;;;;;;;1.60;0.30;;;11.90;99.90;;;;;;4947779;29;20126;-80
2021/05/24 02:16:49;;;;;;;0.50;0.10;;;11.90;99.90;;;;;;4947821;29;20024;-81
2021/05/24 02:19:16;;;;;;;1.27;0.10;;;11.80;99.90;;;;;;4946752;29;20392;-84
2021/05/24 02:21:42;;;;;;;1.08;0.20;;;11.80;99.90;;;;;;4947587;29;20067;-82
2021/05/24 02:24:09;;;;;;;1.08;0.17;;;11.80;99.90;;;;;;4962900;29;20437;-82
2021/05/24 02:26:37;;;;;;;2.83;0.10;;;11.80;99.90;;;;;;4965669;28;20035;-83
2021/05/24 02:29:05;;;;;;;2.15;0.10;;;11.80;99.90;;;;;;4966084;28;20039;-82
2021/05/24 02:31:31;;;;;;;1.23;0.10;;;11.80;99.90;;;;;;4969372;28;20023;-83
2021/05/24 02:33:57;;;;;;;2.17;0.10;;;11.70;99.90;;;;;;4985656;28;20373;-82
2021/05/24 02:36:26;;;;;;;0.95;0.10;;;11.80;99.90;;;;;;4970291;28;20045;-83
2021/05/24 02:38:51;;;;;;;0.77;0.10;;;11.80;99.90;;;;;;4970742;28;20031;-83
2021/05/24 02:41:17;;;;;;;1.42;0.43;;;11.80;99.90;;;;;;4970490;29;20099;-83
2021/05/24 02:43:43;;;;;;;0.80;0.10;;;11.70;99.90;;;;;;4970493;28;20028;-82
2021/05/24 02:46:09;;;;;;;0.93;0.10;;;11.70;99.90;;;;;;4970382;28;20031;-82
2021/05/24 02:48:35;;;;;;;1.60;0.10;;;11.70;99.90;;;;;;4970451;28;20042;-82
2021/05/24 02:51:01;;;;;;;1.58;0.20;;;11.70;99.90;;;;;;4970226;28;20066;-82
2021/05/24 02:53:27;;;;;;;0.77;0.10;;;11.70;99.90;;;;;;4969123;29;20114;-83
2021/05/24 02:55:53;;;;;;;1.00;0.10;;;11.70;99.90;;;;;;4970236;28;20030;-81
2021/05/24 02:58:18;;;;;;;1.23;0.15;;;11.70;99.90;;;;;;4970409;28;20058;-82
2021/05/24 03:00:44;;;;;;;0.32;0.10;;;11.70;99.90;;;;;;4969161;29;20083;-82
2021/05/24 03:03:12;;;;;;;2.25;0.10;;;11.70;99.90;;;;;;4970229;28;20042;-83
2021/05/24 03:05:38;;;;;;;1.52;0.10;;;11.70;99.90;;;;;;4968676;29;20070;-81
2021/05/24 03:08:04;;;;;;;1.52;0.10;;;11.70;99.90;;;;;;4969983;28;20108;-81
2021/05/24 03:10:30;;;;;;;0.40;0.00;;;11.70;99.90;;;;;;4969969;28;20027;-81
2021/05/24 03:12:56;;;;;;;0.80;0.10;;;11.70;99.90;;;;;;4969780;28;20113;-81
2021/05/24 03:15:23;;;;;;;0.30;0.00;;;11.70;99.90;;;;;;4968699;29;20043;-81
2021/05/24 03:17:49;;;;;;;0.65;0.10;;;11.70;99.90;;;;;;4969917;29;20034;-82
2021/05/24 03:20:17;;;;;;;0.88;0.10;;;11.60;99.90;;;;;;4968836;29;20043;-82
2021/05/24 03:22:43;;;;;;;0.52;0.10;;;11.60;99.90;;;;;;4930014;28;20051;-81
2021/05/24 03:25:10;;;;;;;0.95;0.10;;;11.60;99.90;;;;;;4969648;28;20122;-82
2021/05/24 03:27:35;;;;;;;0.82;0.10;;;11.60;99.90;;;;;;4969303;28;20117;-81
2021/05/24 03:30:03;;;;;;;0.30;0.10;;;11.60;99.90;;;;;;4969839;29;20503;-83
2021/05/24 03:32:28;;;;;;;2.60;0.10;;;11.60;99.90;;;;;;4969500;28;20077;-81
2021/05/24 03:34:54;;;;;;;1.33;0.17;;;11.60;99.90;;;;;;4969616;28;20066;-79
2021/05/24 03:37:20;;;;;;;0.88;0.10;;;11.60;99.90;;;;;;4968191;28;20035;-82
2021/05/24 03:39:45;;;;;;;1.02;0.10;;;11.60;99.90;;;;;;4969301;28;20043;-82
2021/05/24 03:42:11;;;;;;;1.15;0.10;;;11.60;99.90;;;;;;4969208;28;20110;-83
2021/05/24 03:44:41;;;;;;;0.82;0.20;;;11.60;99.90;;;;;;4969569;29;20039;-81
2021/05/24 03:47:07;;;;;;;1.50;0.10;;;11.70;99.90;;;;;;4968576;29;20031;-81
2021/05/24 03:49:33;;;;;;;0.28;0.10;;;11.70;99.90;;;;;;4969471;29;20094;-81
2021/05/24 03:51:58;;;;;;;0.63;0.10;;;11.70;99.90;;;;;;4951835;29;20034;-81
2021/05/24 03:54:24;;;;;;;2.08;0.28;;;11.70;99.90;;;;;;4968434;29;20031;-83
2021/05/24 03:56:49;;;;;;;0.40;0.10;;;11.70;99.90;;;;;;4964736;29;20059;-82
2021/05/24 03:59:15;;;;;;;6.57;0.15;;;11.70;99.90;;;;;;4983180;28;20487;-83
2021/05/24 04:01:40;;;;;;;3.05;0.10;;;11.70;99.90;;;;;;4969119;29;20054;-82
2021/05/24 04:04:06;;;;;;;1.40;0.10;;;11.70;99.90;;;;;;4968815;28;20046;-81
2021/05/24 04:06:33;;;;;;;0.60;0.10;;;11.70;99.90;;;;;;4968176;29;20031;-82
2021/05/24 04:08:59;;;;;;;1.65;0.10;;;11.70;99.90;;;;;;4983221;28;20027;-82
2021/05/24 04:11:25;;;;;;;0.43;0.10;;;11.70;99.90;;;;;;4967024;29;20063;-81
2021/05/24 04:13:54;;;;;;;0.57;0.10;;;11.70;99.90;;;;;;4966766;29;20058;-83
2021/05/24 04:16:20;;;;;;;1.05;0.10;;;11.70;99.90;;;;;;4968241;28;20279;-82
2021/05/24 04:18:48;;;;;;;0.85;0.10;;;11.70;99.90;;;;;;4968244;28;20580;-82
2021/05/24 04:21:15;;;;;;;2.15;0.10;;;11.70;99.90;;;;;;4966911;29;20522;-83
2021/05/24 04:23:42;;;;;;;0.43;0.10;;;11.70;99.90;;;;;;4966706;29;20031;-82
2021/05/24 04:26:08;;;;;;;0.35;0.08;;;11.70;99.90;;;;;;4968008;28;20099;-82
2021/05/24 04:28:35;;;;;;;1.20;0.10;;;11.70;99.90;;;;;;4966841;29;20042;-83
2021/05/24 04:31:01;;;;;;;0.25;0.00;;;11.70;99.90;;;;;;4966654;29;20455;-82
2021/05/24 04:33:27;;;;;;;2.20;0.00;;;11.70;99.90;;;;;;4967811;28;20071;-83
2021/05/24 04:35:53;;;;;;;0.50;0.10;;;11.70;99.90;;;;;;4967908;28;20027;-82
2021/05/24 04:38:19;;;;;;;2.28;0.10;;;11.70;99.90;;;;;;4967718;28;20035;-81
2021/05/24 04:40:46;;;;;;;0.20;0.10;;;11.70;99.90;;;;;;4967824;28;20027;-82
2021/05/24 04:43:14;;;;;;;0.43;0.05;;;11.70;99.90;;;;;;4967847;28;20086;-82
2021/05/24 04:45:39;;;;;;;1.33;0.10;;;11.70;99.90;;;;;;4967488;28;20050;-83
2021/05/24 04:48:06;;;;;;;0.93;0.00;;;11.70;99.90;;;;;;4982726;28;20476;-84
2021/05/24 04:50:32;;;;;;;0.68;0.10;;;11.80;99.90;;;;;;4967578;28;20067;-82
2021/05/24 04:52:57;;;;;;;0.30;0.00;;;11.80;99.90;;;;;;4966649;28;20043;-82
2021/05/24 04:55:23;;;;;;;0.82;0.10;;;11.80;99.90;;;;;;4967498;28;20035;-82
2021/05/24 04:57:49;;;;;;;1.60;0.10;;;11.80;99.90;;;;;;4967359;28;20053;-82
2021/05/24 05:00:15;;;;;;;0.63;0.03;;;11.90;99.90;;;;;;4967636;28;20023;-81
2021/05/24 05:02:41;;;;;;;0.45;0.10;;;11.90;99.90;;;;;;4967427;28;20046;-82
2021/05/24 05:08:54;;;;;;;0.85;0.10;;;11.90;99.90;;;;;;4926731;29;20133;-82
2021/05/24 05:11:20;;;;;;;0.77;0.00;;;12.00;99.90;;;;;;4910758;29;20067;-82
2021/05/24 05:13:46;;;;;;;1.30;0.10;;;12.10;99.90;;;;;;4910559;29;20147;-82
2021/05/24 05:16:11;;;;;;;0.22;0.00;;;12.10;99.90;;;;;;4926795;29;20099;-82
2021/05/24 05:18:37;;;;;;;1.08;0.10;;;12.20;99.90;;;;;;4910806;29;20055;-81
2021/05/24 05:21:03;;;;;;;0.52;0.10;;;12.20;99.90;;;;;;4910777;29;20051;-82
2021/05/24 05:23:29;;;;;;;1.25;0.10;;;12.30;99.90;;;;;;4910864;29;20028;-82
2021/05/24 05:25:55;;;;;;;1.10;0.10;;;12.20;99.90;;;;;;4924586;29;20079;-82
2021/05/24 05:28:23;;;;;;;1.20;0.03;;;12.30;99.90;;;;;;4945469;29;20095;-81
2021/05/24 05:30:49;;;;;;;0.38;0.00;;;12.30;99.90;;;;;;4913634;29;20126;-81
2021/05/24 05:33:15;;;;;;;0.28;0.00;;;12.40;99.90;;;;;;4913526;29;20059;-81
2021/05/24 05:35:44;;;;;;;0.80;0.10;;;12.40;99.90;;;;;;4926064;29;20040;-81
2021/05/24 05:38:10;;;;;;;0.30;0.00;;;12.40;99.90;;;;;;4910452;29;20048;-82
2021/05/24 05:40:36;;;;;;;1.60;0.10;;;12.50;99.90;;;;;;4894861;29;20043;-81
2021/05/24 05:43:01;;;;;;;1.20;0.10;;;12.50;99.90;;;;;;4926354;29;20032;-82
2021/05/24 05:45:27;;;;;;;1.15;0.05;;;12.60;99.90;;;;;;4948248;29;20078;-81
2021/05/24 05:47:53;;;;;;;0.38;0.10;;;12.60;99.90;;;;;;4966923;29;20024;-83
2021/05/24 05:50:18;;;;;;;2.33;0.10;;;12.60;99.90;;;;;;4966877;29;20062;-82
2021/05/24 05:52:44;;;;;;;0.70;0.00;;;12.70;99.90;;;;;;4965635;29;20086;-81
2021/05/24 05:55:10;;;;;;;0.57;0.10;;;12.80;99.90;;;;;;4966683;29;20039;-82
2021/05/24 05:57:35;;;;;;;0.60;0.10;;;12.80;99.90;;;;;;4965484;29;20027;-80
2021/05/24 06:00:03;;;;;;;0.50;0.10;;;12.80;99.90;;;;;;4966756;29;20496;-82
2021/05/24 06:02:37;;;;;;;1.17;0.10;;;12.80;99.90;;;;;;4965610;29;20035;-82
2021/05/24 06:05:23;;;;;;;0.90;0.10;;;13.00;99.90;;;;;;4968706;28;20135;-82
2021/05/24 06:07:48;;;;;;;0.95;0.10;;;13.00;99.90;;;;;;4952053;29;20081;-81
2021/05/24 06:10:16;;;;;;;1.80;0.10;;;13.10;99.90;;;;;;4967936;29;20043;-81
2021/05/24 06:12:43;;;;;;;1.27;0.30;;;13.10;99.90;;;;;;4967630;29;20035;-82
2021/05/24 06:15:11;;;;;;;1.02;0.10;;;13.20;99.90;;;;;;4951700;29;20045;-81
2021/05/24 06:17:37;;;;;;;0.65;0.10;;;13.30;99.90;;;;;;4952309;29;20031;-81
2021/05/24 06:20:04;;;;;;;0.60;0.05;;;13.40;99.90;;;;;;4952028;29;20532;-81
2021/05/24 06:22:30;;;;;;;1.13;0.10;;;13.40;99.90;;;;;;4967589;29;20039;-83
2021/05/24 06:24:55;;;;;;;1.35;0.10;;;13.50;99.90;;;;;;4954585;28;20092;-82
2021/05/24 06:27:21;;;;;;;1.08;0.10;;;13.60;99.90;;;;;;4987104;28;20054;-82
2021/05/24 06:29:46;;;;;;;0.60;0.10;;;13.70;99.90;;;;;;4955085;28;20038;-81
2021/05/24 06:32:12;;;;;;;0.73;0.10;;;13.70;99.90;;;;;;4947106;29;20035;-82
2021/05/24 06:34:38;;;;;;;0.50;0.10;;;13.80;99.90;;;;;;4935802;29;20082;-83
2021/05/24 06:37:04;;;;;;;0.80;0.10;;;13.90;99.90;;;;;;4967568;29;20051;-82
2021/05/24 06:39:30;;;;;;;1.30;0.10;;;13.90;99.90;;;;;;4967473;29;20027;-81
2021/05/24 06:41:55;;;;;;;1.50;0.10;;;14.10;99.90;;;;;;4967435;29;20046;-83
2021/05/24 06:44:21;;;;;;;1.23;0.22;;;14.10;99.90;;;;;;4962673;29;20408;-83
2021/05/24 06:46:48;;;;;;;1.27;0.10;;;14.20;99.90;;;;;;4949564;29;20023;-83
2021/05/24 06:49:14;;;;;;;1.42;0.20;;;14.20;99.90;;;;;;4950563;29;20136;-82
2021/05/24 06:51:40;;;;;;;2.67;0.10;;;14.30;99.90;;;;;;4950509;29;20044;-83
2021/05/24 06:54:05;;;;;;;2.28;0.10;;;14.40;99.90;;;;;;4960215;29;20112;-82
2021/05/24 06:56:31;;;;;;;0.68;0.10;;;14.60;99.90;;;;;;4968243;29;20038;-82
2021/05/24 06:58:57;;;;;;;1.55;0.10;;;14.80;99.90;;;;;;4969925;28;20134;-83
2021/05/24 07:01:23;;;;;;;2.10;0.10;;;14.80;99.90;;;;;;4984535;28;20091;-83
2021/05/24 07:03:48;;;;;;;0.60;0.10;;;14.80;99.90;;;;;;4967371;29;20039;-81
2021/05/24 07:06:14;;;;;;;1.73;0.10;;;14.70;99.90;;;;;;4983298;28;20035;-83
2021/05/24 07:08:39;;;;;;;1.30;0.08;;;14.80;99.90;;;;;;4969204;28;20024;-83
2021/05/24 07:11:05;;;;;;;0.25;0.00;;;14.90;99.90;;;;;;4968765;29;20110;-83
2021/05/24 07:13:31;;;;;;;0.90;0.10;;;14.90;99.90;;;;;;4965810;29;20123;-82
2021/05/24 07:15:56;;;;;;;2.20;0.30;;;14.90;99.90;;;;;;4967236;28;20114;-82
2021/05/24 07:18:22;;;;;;;0.75;0.10;;;15.00;99.90;;;;;;4969286;28;20444;-81
2021/05/24 07:20:48;;;;;;;1.33;0.10;;;15.00;99.90;;;;;;4963749;29;20031;-83
2021/05/24 07:23:14;;;;;;;0.52;0.00;;;15.10;99.90;;;;;;4952818;29;20579;-82
2021/05/24 07:25:41;;;;;;;0.50;0.03;;;15.10;99.90;;;;;;4966122;29;20072;-82
2021/05/24 07:28:06;;;;;;;1.13;0.10;;;15.00;99.90;;;;;;4949793;29;20046;-82
2021/05/24 07:30:32;;;;;;;1.65;0.08;;;15.10;99.90;;;;;;4949729;29;20087;-82
2021/05/24 07:32:58;;;;;;;1.70;0.10;;;15.10;99.90;;;;;;4941508;28;20073;-82
2021/05/24 07:35:23;;;;;;;1.42;0.10;;;15.10;99.90;;;;;;4968295;28;20162;-82
2021/05/24 07:37:49;;;;;;;1.42;0.10;;;15.20;99.90;;;;;;4985966;28;20037;-82
2021/05/24 07:40:15;;;;;;;1.65;0.10;;;15.10;99.90;;;;;;4986913;28;20054;-80
2021/05/24 07:42:41;;;;;;;0.88;0.10;;;15.10;99.90;;;;;;4986756;28;20031;-80
2021/05/24 07:45:08;;;;;;;1.48;0.10;;;15.10;99.90;;;;;;4986624;28;20077;-81
2021/05/24 07:47:35;;;;;;;1.08;0.10;;;15.10;99.90;;;;;;4986342;28;20042;-81
2021/05/24 07:50:01;;;;;;;1.60;0.00;;;15.10;99.90;;;;;;4986636;28;20513;-81
2021/05/24 07:52:27;;;;;;;1.40;0.10;;;14.80;99.90;;;;;;4986905;28;20039;-81
2021/05/24 07:54:53;;;;;;;0.85;0.10;;;14.80;99.90;;;;;;4986635;28;20142;-80
2021/05/24 07:57:18;;;;;;;1.25;0.10;;;14.70;99.90;;;;;;4970279;28;20054;-80
2021/05/24 07:59:44;;;;;;;1.13;0.20;;;14.80;99.90;;;;;;4987732;28;20034;-81
2021/05/24 08:02:10;;;;;;;1.92;0.10;;;14.90;99.90;;;;;;5002399;28;20077;-81
2021/05/24 08:04:35;;;;;;;1.77;0.10;;;14.70;99.90;;;;;;4987609;28;20063;-81
2021/05/24 08:07:01;;;;;;;0.90;0.00;;;14.60;99.90;;;;;;4986017;28;20399;-80
2021/05/24 08:09:30;;;;;;;0.85;0.10;;;14.50;99.90;;;;;;4986078;28;20046;-81
2021/05/24 08:11:56;;;;;;;0.82;0.10;;;14.30;99.90;;;;;;4969092;28;20178;-81
2021/05/24 08:14:21;;;;;;;1.30;0.10;;;14.30;99.90;;;;;;4967869;29;20039;-81
2021/05/24 08:16:48;;;;;;;2.45;0.10;;;14.20;99.90;;;;;;4934701;29;20062;-80
2021/05/24 08:19:14;;;;;;;1.90;0.08;;;14.00;99.90;;;;;;4946880;29;20046;-80
2021/05/24 08:21:49;;;;;;;0.85;0.10;;;13.80;99.90;;;;;;4955575;29;20380;-80
2021/05/24 08:24:16;;;;;;;0.82;0.00;;;13.70;99.90;;;;;;4950315;28;20035;-79
2021/05/24 08:26:42;;;;;;;0.52;0.10;;;13.70;99.90;;;;;;4950120;29;20027;-80
2021/05/24 08:29:08;;;;;;;0.50;0.10;;;13.50;99.90;;;;;;4967587;29;20036;-80
2021/05/24 08:31:36;;;;;;;0.68;0.10;;;13.50;99.90;;;;;;4950125;29;20050;-80
2021/05/24 08:34:03;;;;;;;1.08;0.03;;;13.40;99.90;;;;;;4967126;29;20441;-79
2021/05/24 08:36:30;;;;;;;1.17;0.03;;;13.40;99.90;;;;;;4967378;29;20488;-80
2021/05/24 08:38:56;;;;;;;1.95;0.10;;;13.30;99.90;;;;;;4950613;29;20058;-80
2021/05/24 08:41:21;;;;;;;2.55;0.17;;;13.30;99.90;;;;;;4967703;29;20055;-79
2021/05/24 08:43:47;;;;;;;2.92;0.10;;;13.30;99.90;;;;;;4946679;29;20035;-80
2021/05/24 08:46:14;;;;;;;1.90;0.20;;;13.30;99.90;;;;;;4946896;29;20045;-79
2021/05/24 08:48:40;;;;;;;1.55;0.10;;;12.90;99.90;;;;;;4947100;29;20067;-80
2021/05/24 08:51:07;;;;;;;1.63;0.10;;;12.60;99.90;;;;;;4948104;29;20043;-81
2021/05/24 08:53:33;;;;;;;2.97;0.40;;;12.70;99.90;;;;;;4931068;29;20034;-80
2021/05/24 08:55:59;;;;;;;1.73;0.20;;;12.70;99.90;;;;;;4915419;29;20047;-80
2021/05/24 08:58:25;;;;;;;1.00;0.20;;;12.80;99.90;;;;;;4946944;29;20126;-81
2021/05/24 09:00:51;;;;;;;1.83;0.20;;;12.80;99.90;;;;;;4930961;29;20032;-81
2021/05/24 09:03:31;;;;;;;1.77;0.20;;;12.80;99.90;;;;;;4930851;29;20043;-82
2021/05/24 09:05:59;;;;;;;1.30;0.10;;;13.00;99.90;;;;;;4948228;29;20063;-82
2021/05/24 09:08:42;;;;;;;0.88;0.10;;;13.00;99.90;;;;;;4947442;29;20121;-81
2021/05/24 09:11:29;;;;;;;0.90;0.20;;;13.00;99.90;;;;;;4947738;29;20067;-82
2021/05/24 09:13:55;;;;;;;0.30;0.10;;;13.10;99.90;;;;;;4930632;29;20440;-81
2021/05/24 09:16:33;;;;;;;1.05;0.20;;;13.20;99.90;;;;;;4947759;29;20059;-81
2021/05/24 09:19:10;;;;;;;1.40;0.20;;;13.10;99.90;;;;;;4931292;29;20488;-81
2021/05/24 09:21:35;;;;;;;2.30;0.68;;;13.10;99.90;;;;;;4949512;29;20038;-81
2021/05/24 09:24:22;;;;;;;1.60;0.20;;;13.10;99.90;;;;;;4966805;29;20027;-80
2021/05/24 09:26:48;;;;;;;1.55;0.40;;;13.20;99.90;;;;;;4942533;29;20102;-81
2021/05/24 09:29:16;;;;;;;0.85;0.10;;;13.00;99.90;;;;;;4966604;29;20059;-81
2021/05/24 09:31:42;;;;;;;3.30;0.20;;;13.20;99.90;;;;;;4948945;29;20027;-81
2021/05/24 09:34:08;;;;;;;1.58;0.20;;;13.10;99.90;;;;;;4966832;29;20058;-81
2021/05/24 09:36:34;;;;;;;0.70;0.10;;;13.10;99.90;;;;;;4966405;29;20024;-82
2021/05/24 09:39:10;;;;;;;2.75;0.20;;;13.00;99.90;;;;;;4933179;29;20142;-81
2021/05/24 09:41:41;;;;;;;1.00;0.20;;;13.00;99.90;;;;;;4933434;29;20039;-80
2021/05/24 09:44:07;;;;;;;1.58;0.20;;;13.00;99.90;;;;;;4966711;29;20074;-81
2021/05/24 09:46:33;;;;;;;0.52;0.20;;;12.90;99.90;;;;;;4948904;29;20039;-81
2021/05/24 09:49:02;;;;;;;3.08;0.20;;;13.10;99.90;;;;;;4921142;28;20062;-81
2021/05/24 09:51:33;;;;;;;0.73;0.15;;;13.20;99.90;;;;;;4929839;29;20055;-81
2021/05/24 09:54:02;;;;;;;1.15;0.10;;;13.20;99.90;;;;;;4930383;29;20119;-81
2021/05/24 09:56:36;;;;;;;1.15;0.10;;;13.30;99.90;;;;;;4930307;29;20481;-81
2021/05/24 09:59:16;;;;;;;0.85;0.10;;;13.30;99.90;;;;;;4930256;29;20112;-80
2021/05/24 10:01:45;;;;;;;;;;;13.30;99.90;;;;;;4930093;29;20047;-80
2021/05/24 10:04:13;;;;;;;0.75;0.20;;;13.40;99.90;;;;;;4929983;29;20296;-80
2021/05/24 10:06:39;;;;;;;0.30;0.10;;;13.30;99.90;;;;;;4947207;29;20032;-81
2021/05/24 10:09:09;;;;;;;1.02;0.10;;;13.40;99.90;;;;;;4930383;29;20031;-81
2021/05/24 10:11:38;;;;;;;1.70;0.10;;;13.50;99.90;;;;;;4946686;29;20071;-80
2021/05/24 10:14:04;;;;;;;0.85;0.10;;;13.50;99.90;;;;;;4929535;29;20028;-81
2021/05/24 10:16:33;;;;;;;1.10;0.10;;;13.50;99.90;;;;;;4929606;29;20051;-80
2021/05/24 10:18:59;;;;;;;0.50;0.10;;;13.80;99.90;;;;;;4930218;29;20481;-80
2021/05/24 10:21:26;;;;;;;0.68;0.17;;;14.00;99.90;;;;;;4929744;29;20475;-80
2021/05/24 10:23:54;;;;;;;1.40;0.10;;;13.90;99.90;;;;;;4945521;29;20032;-81
2021/05/24 10:26:20;;;;;;;1.63;0.10;;;14.00;99.90;;;;;;4945646;29;20441;-81
2021/05/24 10:28:47;;;;;;;0.52;0.10;;;13.90;99.90;;;;;;4929871;29;20028;-81
2021/05/24 10:31:28;;;;;;;3.67;0.20;;;13.80;99.90;;;;;;4946582;29;20115;-81
2021/05/24 10:33:54;;;;;;;0.52;0.20;;;13.70;99.90;;;;;;4910830;29;20028;-82
2021/05/24 10:36:29;;;;;;;2.38;0.10;;;13.50;99.90;;;;;;4912290;29;20094;-81
2021/05/24 10:39:12;;;;;;;1.95;0.10;;;13.60;99.90;;;;;;4947008;29;20043;-80
2021/05/24 10:41:41;;;;;;;0.85;0.10;;;13.30;99.90;;;;;;4929828;29;20084;-82
2021/05/24 10:44:15;;;;;;;1.70;0.10;;;13.30;99.90;;;;;;4946812;29;20054;-81
2021/05/24 10:46:41;;;;;;;1.08;0.10;;;13.20;99.90;;;;;;4929348;29;20035;-81
2021/05/24 10:49:13;;;;;;;0.63;0.20;;;13.20;99.90;;;;;;4931025;29;20051;-81
2021/05/24 10:51:49;;;;;;;1.35;0.10;;;13.30;99.90;;;;;;4948087;29;20035;-80
2021/05/24 10:54:20;;;;;;;0.60;0.10;;;13.40;99.90;;;;;;4950277;29;20038;-80
2021/05/24 10:57:12;;;;;;;1.85;0.10;;;13.50;99.90;;;;;;4948960;29;20059;-80
2021/05/24 10:59:41;;;;;;;0.50;0.10;;;13.60;99.90;;;;;;4933028;29;20055;-81
2021/05/24 11:02:11;;;;;;;1.08;0.30;;;13.50;99.90;;;;;;4948417;29;20040;-80
2021/05/24 11:04:47;;;;;;;2.05;0.10;;;13.50;99.90;;;;;;4948742;29;20043;-80
2021/05/24 11:07:29;;;;;;;0.70;0.20;;;13.80;99.90;;;;;;4948631;29;20031;-80
2021/05/24 11:10:14;;;;;;;1.25;0.20;;;14.10;99.90;;;;;;4948979;29;20400;-80
2021/05/24 11:12:42;;;;;;;2.17;0.20;;;14.20;99.90;;;;;;4949914;29;20052;-80
2021/05/24 11:15:11;;;;;;;0.60;0.10;;;14.20;99.90;;;;;;4949179;29;20028;-80
2021/05/24 11:18:27;;;;;;;1.17;0.17;;;14.20;99.90;;;;;;4949651;29;20071;-81
2021/05/24 11:20:57;;;;;;;0.88;0.10;;;14.30;99.90;;;;;;4948986;29;20039;-80
2021/05/24 11:26:13;;;;;;;1.00;0.10;;;14.40;99.90;;;;;;4948551;29;20047;-80
2021/05/24 11:28:49;;;;;;;1.00;0.10;;;14.20;99.90;;;;;;4950202;29;20024;-81
2021/05/24 11:31:18;;;;;;;0.30;0.10;;;14.20;99.90;;;;;;4948402;29;20063;-79
2021/05/24 11:33:47;;;;;;;0.68;0.10;;;13.90;99.90;;;;;;4948276;29;20052;-80
2021/05/24 11:36:40;;;;;;;0.32;0.00;;;13.80;99.90;;;;;;4963681;29;20040;-79
2021/05/24 11:39:32;;;;;;;0.10;0.00;;;13.60;99.90;;;;;;4945760;29;20456;-80
2021/05/24 11:42:11;;;;;;;1.10;0.10;;;13.60;99.90;;;;;;4946203;29;20039;-80
2021/05/24 11:44:42;;;;;;;0.20;0.00;;;13.60;99.90;;;;;;4948888;29;20072;-80
2021/05/24 11:47:10;;;;;;;0.00;0.00;;;13.70;99.90;;;;;;4947571;29;20183;-80
2021/05/24 11:49:41;;;;;;;0.30;0.00;;;13.80;99.90;;;;;;4947768;29;20043;-79
2021/05/24 11:52:09;;;;;;;1.35;0.05;;;13.90;99.90;;;;;;4943788;29;20034;-79
2021/05/24 11:54:36;;;;;;;0.00;0.00;;;13.70;99.90;;;;;;4930375;29;20036;-79
2021/05/24 11:57:05;;;;;;;1.00;0.00;;;13.70;99.90;;;;;;4921038;29;20039;-80
2021/05/24 11:59:32;;;;;;;0.10;0.00;;;14.00;99.90;;;;;;4946545;29;20058;-79
2021/05/24 12:01:59;;;;;;;0.38;0.05;;;14.10;99.90;;;;;;4948939;29;20077;-80
2021/05/24 12:04:39;;;;;;;0.28;0.10;;;13.90;99.90;;;;;;4966255;28;20066;-80
2021/05/24 12:07:20;;;;;;;0.77;0.10;;;13.90;99.90;;;;;;4965243;29;20492;-80
2021/05/24 12:09:59;;;;;;;0.20;0.00;;;13.90;99.90;;;;;;4934497;28;20407;-80
2021/05/24 12:12:34;;;;;;;0.80;0.10;;;14.10;99.90;;;;;;4949428;29;20047;-79
2021/05/24 12:15:04;;;;;;;0.20;0.00;;;14.30;99.90;;;;;;4933787;29;20443;-80
2021/05/24 12:17:32;;;;;;;0.57;0.00;;;14.30;99.90;;;;;;4965953;28;20036;-80
2021/05/24 12:19:59;;;;;;;0.30;0.00;;;14.40;99.90;;;;;;4948808;29;20478;-80
2021/05/24 12:22:30;;;;;;;0.35;0.10;;;14.80;99.90;;;;;;4965782;28;20042;-80
2021/05/24 12:25:06;;;;;;;0.20;0.10;;;14.60;99.90;;;;;;4933604;29;20039;-80
2021/05/24 12:27:34;;;;;;;0.20;0.10;;;14.90;99.90;;;;;;4965231;29;20122;-80
2021/05/24 12:30:13;;;;;;;0.20;0.10;;;14.90;99.90;;;;;;4965284;28;20048;-80
2021/05/24 12:32:42;;;;;;;0.30;0.05;;;14.60;99.90;;;;;;4965426;29;20082;-81
2021/05/24 12:35:17;;;;;;;0.30;0.03;;;14.50;99.90;;;;;;4949152;29;20066;-80
2021/05/24 12:37:50;;;;;;;0.25;0.00;;;14.90;99.90;;;;;;4927974;29;20036;-80
2021/05/24 12:40:17;;;;;;;0.30;0.00;;;15.10;99.90;;;;;;4929590;29;20036;-80
2021/05/24 12:42:43;;;;;;;1.90;0.25;;;14.80;99.90;;;;;;4927721;29;20039;-80
2021/05/24 12:45:12;;;;;;;0.50;0.00;;;14.70;99.90;;;;;;4927763;29;20060;-80
2021/05/24 12:47:38;;;;;;;0.50;0.08;;;14.60;99.90;;;;;;4928191;29;20036;-80
2021/05/24 12:50:12;;;;;;;1.55;0.00;;;14.50;99.90;;;;;;4928907;29;20060;-80
2021/05/24 12:52:38;;;;;;;0.10;0.00;;;14.70;99.90;;;;;;4928138;29;20032;-80
2021/05/24 12:55:13;;;;;;;0.55;0.10;;;14.60;99.90;;;;;;4927985;29;20036;-80
2021/05/24 12:57:41;;;;;;;0.32;0.00;;;14.30;99.90;;;;;;4943825;29;20088;-79
2021/05/24 13:00:07;;;;;;;0.17;0.00;;;14.30;99.90;;;;;;4911884;29;20067;-79
2021/05/24 13:02:33;;;;;;;0.40;0.05;;;14.30;99.90;;;;;;4929149;29;20052;-80